Time;durP1;ratioP1;P1;durP2;ratioP2;P2;SDS_P1;SDS_P2;PMS_P1;PMS_P2;Temp;Humidity;BMP_temperature;BMP_pressure;BME280_temperature;BME280_humidity;BME280_pressure;Samples;Min_cycle;Max_cycle;Signal;HPM_P1;HPM_P2
2022/05/02 00:01:23;;;;;;;15.57;8.63;;;;;;;;;;5013658;28;20310;-82
2022/05/02 00:03:48;;;;;;;14.90;8.90;;;;;;;;;;5013870;28;20429;-82
2022/05/02 00:06:13;;;;;;;17.57;8.63;;;;;;;;;;5013411;28;20018;-82
2022/05/02 00:08:39;;;;;;;14.07;8.47;;;;;;;;;;5012998;28;20065;-82
2022/05/02 00:11:04;;;;;;;20.57;8.33;;;;;;;;;;5046441;28;20025;-81
2022/05/02 00:13:29;;;;;;;15.40;9.50;;;;;;;;;;5013305;28;20030;-82
2022/05/02 00:15:54;;;;;;;15.53;8.97;;;;;;;;;;5013272;28;20030;-82
2022/05/02 00:18:20;;;;;;;18.17;10.17;;;;;;;;;;5012774;28;20034;-82
2022/05/02 00:20:46;;;;;;;19.03;10.37;;;;;;;;;;5013220;28;20037;-82
2022/05/02 00:23:12;;;;;;;17.53;9.87;;;;;;;;;;5012867;28;20112;-82
2022/05/02 00:25:38;;;;;;;18.03;9.80;;;;;;;;;;5012776;28;20034;-82
2022/05/02 00:28:03;;;;;;;18.13;9.73;;;;;;;;;;5012613;28;20075;-82
2022/05/02 00:30:29;;;;;;;21.87;9.83;;;;;;;;;;5012957;28;20022;-82
2022/05/02 00:32:55;;;;;;;19.93;9.73;;;;;;;;;;5012700;28;20018;-82
2022/05/02 00:35:21;;;;;;;19.67;9.93;;;;;;;;;;5014449;28;20030;-82
2022/05/02 00:37:47;;;;;;;16.33;9.87;;;;;;;;;;5012173;28;20123;-82
2022/05/02 00:40:13;;;;;;;21.00;9.87;;;;;;;;;;5021266;28;20116;-82
2022/05/02 00:42:39;;;;;;;18.40;9.83;;;;;;;;;;5065447;28;20033;-82
2022/05/02 00:45:08;;;;;;;21.03;10.00;;;;;;;;;;5065454;28;20036;-82
2022/05/02 00:47:34;;;;;;;18.40;10.27;;;;;;;;;;5031867;28;20025;-81
2022/05/02 00:49:59;;;;;;;23.07;11.70;;;;;;;;;;5032494;28;20076;-82
2022/05/02 00:52:25;;;;;;;18.07;9.93;;;;;;;;;;5032326;28;20021;-82
2022/05/02 00:54:50;;;;;;;16.23;9.67;;;;;;;;;;5065522;28;20021;-82
2022/05/02 00:57:16;;;;;;;19.17;11.07;;;;;;;;;;5033025;28;20021;-82
2022/05/02 00:59:42;;;;;;;23.17;11.83;;;;;;;;;;5031513;28;20025;-82
2022/05/02 01:02:08;;;;;;;18.00;10.43;;;;;;;;;;5033950;28;20032;-82
2022/05/02 01:04:34;;;;;;;17.13;10.27;;;;;;;;;;5032071;28;20045;-82
2022/05/02 01:07:09;;;;;;;17.20;9.57;;;;;;;;;;5048341;28;20433;-82
2022/05/02 01:09:38;;;;;;;16.13;10.00;;;;;;;;;;5065467;28;20025;-82
2022/05/02 01:12:03;;;;;;;20.63;10.50;;;;;;;;;;5032081;28;20025;-82
2022/05/02 01:14:32;;;;;;;18.13;10.67;;;;;;;;;;5032141;28;20424;-82
2022/05/02 01:16:57;;;;;;;19.53;11.10;;;;;;;;;;5031306;28;20018;-81
2022/05/02 01:19:23;;;;;;;16.73;10.57;;;;;;;;;;5033125;28;20017;-82
2022/05/02 01:21:48;;;;;;;21.93;11.93;;;;;;;;;;5064974;28;20017;-81
2022/05/02 01:24:13;;;;;;;26.70;11.67;;;;;;;;;;5031618;28;20381;-82
2022/05/02 01:26:38;;;;;;;21.97;12.37;;;;;;;;;;5032736;28;20392;-81
2022/05/02 01:29:04;;;;;;;20.50;12.17;;;;;;;;;;5031231;28;20022;-81
2022/05/02 01:31:29;;;;;;;24.33;13.17;;;;;;;;;;5031483;28;20602;-82
2022/05/02 01:33:54;;;;;;;23.73;13.00;;;;;;;;;;5031636;28;20022;-82
2022/05/02 01:36:20;;;;;;;21.13;12.07;;;;;;;;;;5031562;28;20029;-82
2022/05/02 01:38:46;;;;;;;19.30;11.40;;;;;;;;;;5030703;28;20017;-82
2022/05/02 01:41:11;;;;;;;23.13;11.80;;;;;;;;;;5064234;28;20104;-82
2022/05/02 01:43:37;;;;;;;21.67;12.53;;;;;;;;;;5031549;28;20029;-82
2022/05/02 01:46:03;;;;;;;21.87;12.50;;;;;;;;;;5031213;28;20025;-82
2022/05/02 01:48:28;;;;;;;22.97;12.03;;;;;;;;;;5031952;28;20116;-82
2022/05/02 01:50:54;;;;;;;23.63;12.87;;;;;;;;;;5031311;28;20120;-82
2022/05/02 01:53:19;;;;;;;22.07;12.17;;;;;;;;;;5032578;28;20026;-82
2022/05/02 01:55:44;;;;;;;22.77;13.13;;;;;;;;;;5031345;28;20021;-82
2022/05/02 01:58:10;;;;;;;27.83;13.03;;;;;;;;;;5030642;28;20083;-82
2022/05/02 02:00:35;;;;;;;25.03;12.80;;;;;;;;;;5031184;28;20427;-82
2022/05/02 02:03:00;;;;;;;26.73;13.17;;;;;;;;;;5032284;28;20020;-81
2022/05/02 02:08:09;;;;;;;27.20;13.40;;;;;;;;;;5031789;28;20377;-81
2022/05/02 02:10:34;;;;;;;24.13;13.87;;;;;;;;;;5030818;28;20014;-81
2022/05/02 02:12:59;;;;;;;25.67;13.90;;;;;;;;;;5030895;28;20120;-81
2022/05/02 02:15:25;;;;;;;22.17;12.33;;;;;;;;;;5032114;28;20025;-81
2022/05/02 02:17:50;;;;;;;20.90;13.03;;;;;;;;;;5063499;28;20435;-81
2022/05/02 02:20:15;;;;;;;23.83;11.87;;;;;;;;;;5063987;28;20032;-81
2022/05/02 02:22:41;;;;;;;21.40;12.50;;;;;;;;;;5031715;28;20032;-81
2022/05/02 02:25:06;;;;;;;21.27;13.20;;;;;;;;;;5031868;28;20056;-81
2022/05/02 02:27:32;;;;;;;21.47;12.73;;;;;;;;;;5030370;28;20500;-81
2022/05/02 02:29:57;;;;;;;21.67;12.33;;;;;;;;;;5030922;28;20105;-81
2022/05/02 02:32:23;;;;;;;22.60;12.30;;;;;;;;;;5030592;28;20024;-81
2022/05/02 02:34:48;;;;;;;22.33;12.40;;;;;;;;;;5031515;28;20420;-81
2022/05/02 02:37:15;;;;;;;22.90;13.33;;;;;;;;;;5029741;28;20033;-81
2022/05/02 02:39:40;;;;;;;20.93;12.80;;;;;;;;;;5030274;28;20032;-81
2022/05/02 02:42:06;;;;;;;27.17;14.03;;;;;;;;;;5030452;28;20013;-81
2022/05/02 02:44:31;;;;;;;24.27;13.83;;;;;;;;;;5030537;28;20017;-81
2022/05/02 02:46:56;;;;;;;26.87;14.50;;;;;;;;;;5030093;28;20315;-81
2022/05/02 02:49:22;;;;;;;28.60;13.67;;;;;;;;;;5030499;28;20022;-81
2022/05/02 02:51:47;;;;;;;23.87;13.70;;;;;;;;;;5063516;28;20108;-81
2022/05/02 02:54:12;;;;;;;20.80;12.47;;;;;;;;;;5063623;28;20028;-81
2022/05/02 02:56:37;;;;;;;22.03;13.00;;;;;;;;;;5063323;28;20025;-81
2022/05/02 02:59:03;;;;;;;22.33;12.73;;;;;;;;;;5031379;28;20034;-81
2022/05/02 03:01:28;;;;;;;25.70;14.10;;;;;;;;;;5031296;28;20049;-81
2022/05/02 03:03:53;;;;;;;27.50;14.43;;;;;;;;;;5030023;28;20029;-81
2022/05/02 03:06:18;;;;;;;21.20;13.07;;;;;;;;;;5029926;28;20437;-81
2022/05/02 03:08:44;;;;;;;26.03;14.43;;;;;;;;;;5029863;28;20488;-81
2022/05/02 03:11:10;;;;;;;22.60;12.90;;;;;;;;;;5031425;28;20465;-81
2022/05/02 03:13:35;;;;;;;23.63;13.80;;;;;;;;;;5030730;28;20018;-81
2022/05/02 03:16:00;;;;;;;24.10;14.23;;;;;;;;;;5030386;28;20034;-81
2022/05/02 03:18:26;;;;;;;30.60;15.27;;;;;;;;;;5029709;28;20164;-81
2022/05/02 03:20:51;;;;;;;23.63;13.43;;;;;;;;;;5031502;28;20049;-81
2022/05/02 03:23:16;;;;;;;26.20;13.90;;;;;;;;;;5033944;28;20112;-81
2022/05/02 03:25:42;;;;;;;23.33;13.60;;;;;;;;;;5067565;28;20037;-81
2022/05/02 03:28:07;;;;;;;27.90;14.60;;;;;;;;;;5034790;28;20017;-81
2022/05/02 03:30:32;;;;;;;25.57;14.97;;;;;;;;;;5035232;28;20021;-81
2022/05/02 03:32:58;;;;;;;25.87;13.87;;;;;;;;;;5034120;28;20366;-81
2022/05/02 03:35:23;;;;;;;30.50;14.23;;;;;;;;;;5033864;28;20539;-81
2022/05/02 03:37:48;;;;;;;26.53;14.40;;;;;;;;;;5034807;28;20528;-81
2022/05/02 03:40:13;;;;;;;29.67;14.70;;;;;;;;;;5033370;28;20460;-81
2022/05/02 03:42:38;;;;;;;27.73;14.30;;;;;;;;;;5033725;28;20033;-81
2022/05/02 03:45:05;;;;;;;22.10;13.27;;;;;;;;;;5067068;28;20031;-81
2022/05/02 03:47:30;;;;;;;32.50;16.40;;;;;;;;;;5033362;28;20079;-81
2022/05/02 03:49:55;;;;;;;27.13;15.70;;;;;;;;;;5033627;28;20417;-81
2022/05/02 03:52:21;;;;;;;28.23;14.63;;;;;;;;;;5034961;28;20056;-81
2022/05/02 03:54:46;;;;;;;24.67;14.37;;;;;;;;;;5033422;28;20029;-81
2022/05/02 03:57:11;;;;;;;26.13;14.70;;;;;;;;;;5033194;28;20028;-81
2022/05/02 03:59:36;;;;;;;26.83;15.97;;;;;;;;;;5033370;28;20383;-81
2022/05/02 04:02:01;;;;;;;27.70;15.10;;;;;;;;;;5032786;28;20018;-81
2022/05/02 04:04:27;;;;;;;31.40;15.27;;;;;;;;;;5033481;28;20116;-81
2022/05/02 04:06:52;;;;;;;25.60;14.90;;;;;;;;;;5032984;28;20017;-80
2022/05/02 04:09:17;;;;;;;30.70;15.43;;;;;;;;;;5034516;28;20017;-81
2022/05/02 04:11:42;;;;;;;27.50;14.33;;;;;;;;;;5032853;28;20025;-81
2022/05/02 04:14:08;;;;;;;25.03;14.70;;;;;;;;;;5033233;28;20072;-81
2022/05/02 04:16:33;;;;;;;27.40;13.77;;;;;;;;;;5032860;28;20465;-81
2022/05/02 04:18:58;;;;;;;24.37;14.00;;;;;;;;;;5066311;28;20043;-81
2022/05/02 04:21:23;;;;;;;29.50;14.00;;;;;;;;;;5032657;28;20027;-81
2022/05/02 04:23:49;;;;;;;26.50;13.77;;;;;;;;;;5034153;28;20041;-81
2022/05/02 04:26:14;;;;;;;35.43;15.27;;;;;;;;;;5034103;28;20075;-81
2022/05/02 04:28:39;;;;;;;28.43;14.97;;;;;;;;;;5065756;28;20461;-81
2022/05/02 04:31:05;;;;;;;29.23;16.67;;;;;;;;;;5032601;28;20460;-81
2022/05/02 04:33:30;;;;;;;28.90;15.73;;;;;;;;;;5032584;28;20480;-81
2022/05/02 04:35:56;;;;;;;30.73;16.13;;;;;;;;;;5032895;28;20108;-81
2022/05/02 04:38:21;;;;;;;27.93;16.57;;;;;;;;;;5032447;28;20128;-80
2022/05/02 04:40:46;;;;;;;25.43;15.47;;;;;;;;;;5066034;28;20029;-81
2022/05/02 04:43:13;;;;;;;27.97;15.57;;;;;;;;;;5032666;28;20053;-81
2022/05/02 04:45:39;;;;;;;29.13;14.70;;;;;;;;;;5032644;28;20021;-81
2022/05/02 04:48:04;;;;;;;37.23;15.43;;;;;;;;;;5033360;28;20014;-81
2022/05/02 04:50:29;;;;;;;26.50;15.00;;;;;;;;;;5032198;28;20014;-81
2022/05/02 04:52:54;;;;;;;31.50;15.30;;;;;;;;;;5032311;28;20385;-81
2022/05/02 04:55:20;;;;;;;31.57;15.37;;;;;;;;;;5033781;28;20025;-81
2022/05/02 04:57:45;;;;;;;34.87;16.53;;;;;;;;;;5065256;28;20017;-81
2022/05/02 05:00:10;;;;;;;27.10;15.60;;;;;;;;;;5032508;28;20049;-81
2022/05/02 05:02:36;;;;;;;30.27;15.27;;;;;;;;;;5065744;28;20494;-81
2022/05/02 05:05:01;;;;;;;30.07;15.83;;;;;;;;;;5033342;28;20032;-81
2022/05/02 05:07:26;;;;;;;27.90;16.30;;;;;;;;;;5031290;28;20386;-81
2022/05/02 05:09:51;;;;;;;32.63;16.53;;;;;;;;;;5032238;28;20021;-81
2022/05/02 05:12:26;;;;;;;32.87;17.87;;;;;;;;;;5032071;28;20029;-81
2022/05/02 05:17:55;;;;;;;36.37;15.70;;;;;;;;;;5031158;28;20108;-81
2022/05/02 05:20:23;;;;;;;34.83;16.87;;;;;;;;;;5031670;28;20036;-80
2022/05/02 05:22:48;;;;;;;33.20;17.00;;;;;;;;;;5048145;28;20020;-81
2022/05/02 05:25:16;;;;;;;31.60;16.30;;;;;;;;;;5047889;28;20021;-81
2022/05/02 05:27:42;;;;;;;35.27;18.10;;;;;;;;;;5047656;28;20017;-81
2022/05/02 05:30:08;;;;;;;35.43;19.37;;;;;;;;;;5048465;28;20028;-80
2022/05/02 05:32:33;;;;;;;40.23;21.97;;;;;;;;;;5031875;28;20419;-81
2022/05/02 05:35:05;;;;;;;36.20;20.43;;;;;;;;;;5048010;28;20021;-81
2022/05/02 05:37:46;;;;;;;41.23;21.83;;;;;;;;;;5032188;28;20025;-81
2022/05/02 05:40:21;;;;;;;43.63;22.17;;;;;;;;;;5048295;28;20021;-81
2022/05/02 05:42:58;;;;;;;36.60;21.33;;;;;;;;;;5048079;28;20031;-81
2022/05/02 05:45:31;;;;;;;45.90;22.00;;;;;;;;;;5047173;28;20021;-81
2022/05/02 05:48:00;;;;;;;39.60;22.57;;;;;;;;;;5037623;28;20024;-81
2022/05/02 05:50:35;;;;;;;42.63;23.00;;;;;;;;;;5039637;28;20082;-81
2022/05/02 05:53:01;;;;;;;40.87;22.20;;;;;;;;;;5030445;28;20017;-81
2022/05/02 05:55:50;;;;;;;44.03;23.33;;;;;;;;;;5032429;28;20100;-81
2022/05/02 05:58:20;;;;;;;39.33;22.37;;;;;;;;;;5033703;28;20029;-80
2022/05/02 06:00:48;;;;;;;49.83;23.77;;;;;;;;;;5039473;28;20060;-81
2022/05/02 06:03:14;;;;;;;47.43;23.83;;;;;;;;;;5046693;28;20176;-81
2022/05/02 06:05:44;;;;;;;39.93;23.60;;;;;;;;;;5043709;28;20495;-80
2022/05/02 06:08:10;;;;;;;45.20;24.37;;;;;;;;;;5012192;28;20682;-81
2022/05/02 06:10:36;;;;;;;46.77;24.73;;;;;;;;;;5031527;28;20032;-81
2022/05/02 06:13:02;;;;;;;45.93;23.70;;;;;;;;;;5048940;28;20025;-81
2022/05/02 06:18:28;;;;;;;41.70;22.93;;;;;;;;;;5034637;28;20381;-81
2022/05/02 06:20:57;;;;;;;42.25;23.17;;;;;;;;;;5044514;28;20089;-81
2022/05/02 06:23:23;;;;;;;42.70;23.80;;;;;;;;;;5048402;28;20033;-81
2022/05/02 06:25:49;;;;;;;45.70;25.07;;;;;;;;;;5051864;28;20056;-81
2022/05/02 06:28:15;;;;;;;48.77;23.53;;;;;;;;;;5050195;28;20021;-81
2022/05/02 06:30:41;;;;;;;42.80;24.23;;;;;;;;;;5050594;28;20025;-81
2022/05/02 06:33:11;;;;;;;37.60;21.80;;;;;;;;;;5039912;28;20064;-81
2022/05/02 06:35:41;;;;;;;48.28;22.02;;;;;;;;;;5050409;28;20024;-81
2022/05/02 06:38:13;;;;;;;36.53;21.17;;;;;;;;;;5046563;28;20025;-81
2022/05/02 06:41:00;;;;;;;41.58;21.25;;;;;;;;;;5052006;28;20024;-81
2022/05/02 06:43:32;;;;;;;43.28;23.98;;;;;;;;;;5050693;28;20025;-81
2022/05/02 06:45:57;;;;;;;;;;;;;;;;;;5050957;28;20143;-81
2022/05/02 06:48:25;;;;;;;37.53;20.23;;;;;;;;;;5067241;28;20004;-81
2022/05/02 06:50:54;;;;;;;42.75;20.05;;;;;;;;;;5051078;28;20254;-81
2022/05/02 06:53:32;;;;;;;34.15;18.77;;;;;;;;;;5051762;28;20099;-81
2022/05/02 06:56:17;;;;;;;35.13;19.80;;;;;;;;;;5051670;28;20136;-81
2022/05/02 06:58:42;;;;;;;33.63;19.13;;;;;;;;;;5054564;28;20028;-81
2022/05/02 07:01:07;;;;;;;36.55;20.33;;;;;;;;;;5054103;28;20028;-81
2022/05/02 07:03:33;;;;;;;36.38;20.52;;;;;;;;;;5054439;28;20032;-81
2022/05/02 07:06:08;;;;;;;42.25;20.65;;;;;;;;;;5054309;28;20035;-81
2022/05/02 07:08:38;;;;;;;34.47;18.08;;;;;;;;;;5071004;28;20021;-81
2022/05/02 07:11:04;;;;;;;34.85;19.67;;;;;;;;;;5055362;28;20476;-81
2022/05/02 07:13:32;;;;;;;36.60;20.17;;;;;;;;;;5055529;28;20013;-81
2022/05/02 07:16:03;;;;;;;38.38;20.88;;;;;;;;;;5055756;28;20430;-81
2022/05/02 07:18:45;;;;;;;31.77;17.95;;;;;;;;;;5054061;28;20025;-81
2022/05/02 07:21:25;;;;;;;38.78;18.90;;;;;;;;;;5053893;28;20082;-81
2022/05/02 07:24:29;;;;;;;32.63;17.02;;;;;;;;;;5053918;28;20442;-81
2022/05/02 07:27:13;;;;;;;27.02;15.70;;;;;;;;;;5015813;28;20063;-82
2022/05/02 07:29:39;;;;;;;32.47;16.25;;;;;;;;;;5032718;28;20029;-81
2022/05/02 07:32:06;;;;;;;26.90;15.63;;;;;;;;;;5046046;28;20041;-81
2022/05/02 07:34:33;;;;;;;30.98;16.88;;;;;;;;;;5055098;28;20029;-81
2022/05/02 07:37:02;;;;;;;30.95;17.63;;;;;;;;;;5053772;28;20075;-81
2022/05/02 07:39:28;;;;;;;33.80;17.45;;;;;;;;;;5053356;28;20110;-81
2022/05/02 07:41:54;;;;;;;27.50;15.70;;;;;;;;;;5054209;28;20029;-81
2022/05/02 07:44:23;;;;;;;26.63;13.90;;;;;;;;;;5053723;28;20506;-81
2022/05/02 07:46:50;;;;;;;32.40;13.23;;;;;;;;;;5053694;28;20472;-81
2022/05/02 07:49:21;;;;;;;28.67;15.57;;;;;;;;;;5069958;28;20112;-81
2022/05/02 07:51:47;;;;;;;23.23;13.50;;;;;;;;;;5052703;28;20017;-81
2022/05/02 07:54:18;;;;;;;29.85;15.40;;;;;;;;;;5054702;28;20033;-81
2022/05/02 07:56:45;;;;;;;31.48;16.17;;;;;;;;;;5054678;28;20032;-81
2022/05/02 07:59:14;;;;;;;33.65;16.70;;;;;;;;;;5054593;28;20396;-81
2022/05/02 08:01:39;;;;;;;25.35;12.82;;;;;;;;;;5054268;28;20271;-81
2022/05/02 08:04:04;;;;;;;25.85;15.52;;;;;;;;;;5053278;28;20048;-81
2022/05/02 08:06:45;;;;;;;24.02;14.25;;;;;;;;;;5053226;28;20096;-81
2022/05/02 08:09:16;;;;;;;29.77;14.73;;;;;;;;;;5053111;28;20043;-81
2022/05/02 08:11:47;;;;;;;21.20;11.40;;;;;;;;;;5054229;28;20025;-81
2022/05/02 08:14:16;;;;;;;21.63;9.85;;;;;;;;;;5053104;28;20025;-82
2022/05/02 08:17:02;;;;;;;20.67;10.07;;;;;;;;;;5053191;28;20029;-82
2022/05/02 08:19:48;;;;;;;18.75;10.02;;;;;;;;;;5054068;28;20044;-84
2022/05/02 08:28:23;;;;;;;20.60;10.52;;;;;;;;;;5054193;28;20455;-83
2022/05/02 08:30:56;;;;;;;13.25;7.82;;;;;;;;;;5069419;28;20107;-83
2022/05/02 08:33:25;;;;;;;14.02;8.32;;;;;;;;;;5052850;28;20020;-83
2022/05/02 08:35:50;;;;;;;17.45;7.18;;;;;;;;;;5052355;28;20031;-83
2022/05/02 08:38:27;;;;;;;18.75;7.72;;;;;;;;;;5053559;28;20464;-84
2022/05/02 08:40:52;;;;;;;12.77;7.70;;;;;;;;;;5053611;28;20021;-84
2022/05/02 08:43:40;;;;;;;14.80;7.55;;;;;;;;;;5052718;28;20150;-84
2022/05/02 08:46:09;;;;;;;15.80;9.45;;;;;;;;;;5053705;28;20490;-83
2022/05/02 08:48:49;;;;;;;17.15;9.43;;;;;;;;;;5052288;28;20107;-84
2022/05/02 08:51:20;;;;;;;17.25;9.73;;;;;;;;;;5052097;28;20021;-84
2022/05/02 08:53:58;;;;;;;18.15;10.40;;;;;;;;;;5052329;28;20063;-84
2022/05/02 08:56:38;;;;;;;14.57;8.23;;;;;;;;;;5053295;28;20368;-83
2022/05/02 08:59:22;;;;;;;13.43;7.95;;;;;;;;;;5053310;28;20067;-83
2022/05/02 09:02:17;;;;;;;15.98;9.35;;;;;;;;;;5068289;28;20024;-84
2022/05/02 09:05:01;;;;;;;16.70;8.65;;;;;;;;;;5052967;28;20495;-83
2022/05/02 09:07:35;;;;;;;18.60;10.10;;;;;;;;;;5052975;28;20032;-84
2022/05/02 09:10:14;;;;;;;20.20;9.63;;;;;;;;;;5051489;28;20024;-83
2022/05/02 09:12:46;;;;;;;16.38;9.70;;;;;;;;;;5068432;28;20435;-83
2022/05/02 09:15:29;;;;;;;16.60;9.40;;;;;;;;;;5052049;28;20016;-83
2022/05/02 09:18:00;;;;;;;15.85;9.30;;;;;;;;;;5051986;28;20020;-83
2022/05/02 09:20:28;;;;;;;17.88;8.45;;;;;;;;;;5052063;28;20016;-83
2022/05/02 09:23:12;;;;;;;14.55;6.60;;;;;;;;;;5051809;28;20025;-83
2022/05/02 09:25:52;;;;;;;19.10;8.90;;;;;;;;;;5068382;28;20021;-83
2022/05/02 09:28:21;;;;;;;18.88;9.30;;;;;;;;;;5052047;28;20016;-83
2022/05/02 09:31:05;;;;;;;13.80;8.05;;;;;;;;;;5052749;28;20368;-83
2022/05/02 09:33:34;;;;;;;15.15;8.35;;;;;;;;;;5068130;28;20115;-84
2022/05/02 09:36:04;;;;;;;13.50;8.25;;;;;;;;;;5050991;28;20017;-83
2022/05/02 09:38:45;;;;;;;17.45;8.57;;;;;;;;;;5052246;28;20021;-83
2022/05/02 09:41:28;;;;;;;16.17;6.97;;;;;;;;;;5050928;28;20419;-84
2022/05/02 09:50:02;;;;;;;15.73;8.55;;;;;;;;;;5052197;28;20021;-83
2022/05/02 09:52:27;;;;;;;14.90;8.45;;;;;;;;;;5052102;28;20392;-83
2022/05/02 09:58:04;;;;;;;26.27;10.05;;;;;;;;;;5051826;28;20055;-83
2022/05/02 10:03:23;;;;;;;15.77;8.00;;;;;;;;;;5052422;28;20116;-83
2022/05/02 10:05:53;;;;;;;18.88;8.35;;;;;;;;;;5050987;28;20066;-83
2022/05/02 10:08:22;;;;;;;17.25;8.93;;;;;;;;;;5052124;28;20017;-83
2022/05/02 10:10:47;;;;;;;17.13;10.18;;;;;;;;;;5051882;28;20013;-83
2022/05/02 10:13:12;;;;;;;20.25;10.30;;;;;;;;;;5052249;28;20082;-83
2022/05/02 10:15:40;;;;;;;20.73;10.35;;;;;;;;;;5050866;28;20472;-83
2022/05/02 10:18:18;;;;;;;15.32;8.63;;;;;;;;;;5050934;28;20158;-83
2022/05/02 10:21:04;;;;;;;20.55;10.57;;;;;;;;;;5051146;28;20114;-83
2022/05/02 10:23:54;;;;;;;12.30;7.32;;;;;;;;;;5050366;28;20421;-83
2022/05/02 10:26:29;;;;;;;16.80;9.65;;;;;;;;;;5052242;28;20033;-83
2022/05/02 10:29:13;;;;;;;19.23;9.77;;;;;;;;;;5050717;28;20021;-83
2022/05/02 10:31:39;;;;;;;17.42;8.57;;;;;;;;;;5066757;28;20044;-83
2022/05/02 10:34:05;;;;;;;20.98;10.25;;;;;;;;;;5050681;28;20044;-83
2022/05/02 10:36:37;;;;;;;15.85;8.43;;;;;;;;;;5050578;28;20033;-83
2022/05/02 10:39:14;;;;;;;14.05;8.80;;;;;;;;;;5051963;28;20079;-83
2022/05/02 10:41:45;;;;;;;14.25;8.02;;;;;;;;;;5051349;28;20384;-83
2022/05/02 10:44:14;;;;;;;21.30;10.07;;;;;;;;;;5050550;28;20033;-83
2022/05/02 10:46:42;;;;;;;17.48;7.38;;;;;;;;;;5050413;28;20025;-83
2022/05/02 10:49:21;;;;;;;24.55;9.32;;;;;;;;;;5050490;28;20060;-83
2022/05/02 10:52:07;;;;;;;13.38;7.18;;;;;;;;;;5051373;28;20025;-83
2022/05/02 10:54:40;;;;;;;13.23;8.23;;;;;;;;;;5051621;28;20052;-83
2022/05/02 10:57:30;;;;;;;13.93;7.40;;;;;;;;;;5066934;28;20116;-83
2022/05/02 10:59:59;;;;;;;12.18;6.25;;;;;;;;;;5046671;28;20037;-83
2022/05/02 11:02:43;;;;;;;13.48;6.97;;;;;;;;;;5051389;28;20036;-83
2022/05/02 11:05:09;;;;;;;8.77;5.55;;;;;;;;;;5066991;28;20124;-83
2022/05/02 11:07:40;;;;;;;13.25;7.53;;;;;;;;;;5051461;28;20447;-83
2022/05/02 11:10:07;;;;;;;14.52;8.70;;;;;;;;;;5049978;28;20017;-83
2022/05/02 11:12:59;;;;;;;12.20;7.32;;;;;;;;;;5050227;28;20484;-83
2022/05/02 11:15:25;;;;;;;9.48;6.10;;;;;;;;;;5048721;28;20480;-83
2022/05/02 11:17:53;;;;;;;11.50;7.13;;;;;;;;;;5066863;28;20459;-83
2022/05/02 11:23:31;;;;;;;15.63;8.25;;;;;;;;;;5051683;28;20036;-83
2022/05/02 11:26:21;;;;;;;15.65;8.00;;;;;;;;;;5049885;28;20033;-83
2022/05/02 11:28:56;;;;;;;13.40;8.43;;;;;;;;;;5049899;28;20017;-82
2022/05/02 11:31:24;;;;;;;13.82;6.28;;;;;;;;;;5049598;28;20113;-83
2022/05/02 11:33:56;;;;;;;21.70;8.63;;;;;;;;;;5050123;28;20027;-83
2022/05/02 11:36:24;;;;;;;12.73;6.57;;;;;;;;;;5051234;28;20033;-83
2022/05/02 11:38:59;;;;;;;13.70;8.20;;;;;;;;;;5049726;28;20039;-83
2022/05/02 11:41:27;;;;;;;16.63;8.18;;;;;;;;;;5049269;28;20017;-83
2022/05/02 11:43:59;;;;;;;14.07;7.53;;;;;;;;;;5052595;28;20057;-83
2022/05/02 11:46:24;;;;;;;15.02;8.10;;;;;;;;;;5053623;28;20391;-83
2022/05/02 11:48:59;;;;;;;17.10;8.25;;;;;;;;;;5053668;28;20100;-83
2022/05/02 11:51:46;;;;;;;17.23;9.02;;;;;;;;;;5052935;28;20029;-83
2022/05/02 11:54:30;;;;;;;15.52;8.40;;;;;;;;;;5053393;28;20017;-83
2022/05/02 11:56:59;;;;;;;13.93;7.35;;;;;;;;;;5069949;28;20047;-83
2022/05/02 11:59:29;;;;;;;15.82;7.38;;;;;;;;;;5053157;28;20045;-83
2022/05/02 12:02:06;;;;;;;10.82;6.68;;;;;;;;;;5054642;28;20021;-83
2022/05/02 12:04:36;;;;;;;17.38;8.85;;;;;;;;;;5053338;28;20021;-83
2022/05/02 12:07:04;;;;;;;17.77;8.95;;;;;;;;;;5054427;28;20025;-83
2022/05/02 12:09:32;;;;;;;15.75;8.90;;;;;;;;;;5054263;28;20017;-83
2022/05/02 12:11:59;;;;;;;18.00;8.40;;;;;;;;;;5054378;28;20480;-83
2022/05/02 12:14:24;;;;;;;12.93;7.15;;;;;;;;;;5053230;28;20021;-83
2022/05/02 12:17:01;;;;;;;14.43;5.97;;;;;;;;;;5054820;28;20464;-83
2022/05/02 12:19:36;;;;;;;12.68;7.07;;;;;;;;;;5053767;28;20075;-83
2022/05/02 12:22:04;;;;;;;11.50;5.20;;;;;;;;;;5052939;28;20071;-83
2022/05/02 12:24:33;;;;;;;15.90;7.97;;;;;;;;;;5052716;28;20021;-83
2022/05/02 12:26:59;;;;;;;11.77;7.55;;;;;;;;;;5052936;28;20487;-83
2022/05/02 12:29:25;;;;;;;17.27;8.25;;;;;;;;;;5052515;28;20049;-83
2022/05/02 12:31:58;;;;;;;10.38;6.20;;;;;;;;;;5052761;28;20028;-83
2022/05/02 12:34:34;;;;;;;9.55;5.65;;;;;;;;;;5053998;28;20425;-84
2022/05/02 12:37:04;;;;;;;16.70;7.03;;;;;;;;;;5053313;28;20025;-83
2022/05/02 12:39:33;;;;;;;15.32;7.45;;;;;;;;;;5053349;28;20043;-83
2022/05/02 12:42:08;;;;;;;9.75;6.55;;;;;;;;;;5052796;28;20021;-83
2022/05/02 12:44:52;;;;;;;10.82;5.82;;;;;;;;;;5052754;28;20025;-83
2022/05/02 12:47:22;;;;;;;12.68;5.57;;;;;;;;;;5053677;28;20464;-83
2022/05/02 12:49:56;;;;;;;11.02;5.82;;;;;;;;;;5053079;28;20025;-83
2022/05/02 12:52:23;;;;;;;9.70;5.60;;;;;;;;;;5052041;28;20464;-83
2022/05/02 12:54:49;;;;;;;13.68;6.72;;;;;;;;;;5050907;28;20486;-83
2022/05/02 13:00:43;;;;;;;12.13;6.60;;;;;;;;;;5053126;28;20032;-83
2022/05/02 13:02:44;;;;;;;9.77;5.72;;;;;;;;;;5049133;28;20037;-83
2022/05/02 13:05:12;;;;;;;13.10;6.15;;;;;;;;;;5051813;28;20036;-83
2022/05/02 13:07:43;;;;;;;12.15;5.93;;;;;;;;;;5051907;28;20025;-83
2022/05/02 13:10:41;;;;;;;9.98;6.20;;;;;;;;;;5051814;28;20021;-83
2022/05/02 13:13:13;;;;;;;9.80;5.95;;;;;;;;;;5052939;28;20041;-83
2022/05/02 13:15:38;;;;;;;14.27;6.38;;;;;;;;;;5051934;28;20056;-83
2022/05/02 13:18:05;;;;;;;11.88;5.03;;;;;;;;;;5051850;28;20449;-82
2022/05/02 13:20:31;;;;;;;12.77;6.65;;;;;;;;;;5051294;28;20028;-82
2022/05/02 13:22:57;;;;;;;19.50;7.70;;;;;;;;;;5051964;28;20537;-83
2022/05/02 13:25:42;;;;;;;12.27;6.07;;;;;;;;;;5051650;28;20021;-83
2022/05/02 13:28:07;;;;;;;12.77;7.20;;;;;;;;;;5051418;28;20468;-83
2022/05/02 13:30:33;;;;;;;11.35;6.78;;;;;;;;;;5051621;28;20078;-83
2022/05/02 13:33:08;;;;;;;12.55;6.55;;;;;;;;;;5052875;28;20112;-83
2022/05/02 13:35:34;;;;;;;16.75;6.50;;;;;;;;;;5051666;28;20108;-83
2022/05/02 13:38:00;;;;;;;13.60;6.80;;;;;;;;;;5051201;28;20037;-83
2022/05/02 13:40:40;;;;;;;13.35;5.93;;;;;;;;;;5051171;28;20033;-83
2022/05/02 13:43:11;;;;;;;7.75;4.70;;;;;;;;;;5052909;28;20025;-83
2022/05/02 13:45:41;;;;;;;13.07;6.88;;;;;;;;;;5052519;28;20071;-83
2022/05/02 13:48:30;;;;;;;12.38;6.82;;;;;;;;;;5052570;28;20123;-83
2022/05/02 13:51:14;;;;;;;14.82;6.20;;;;;;;;;;5051110;28;20040;-83
2022/05/02 13:53:58;;;;;;;14.80;8.07;;;;;;;;;;5052688;28;20020;-82
2022/05/02 13:56:33;;;;;;;16.30;6.53;;;;;;;;;;5051210;28;20021;-83
2022/05/02 13:59:03;;;;;;;11.13;5.38;;;;;;;;;;5052051;28;20033;-83
2022/05/02 14:01:45;;;;;;;12.60;5.80;;;;;;;;;;5051518;28;20119;-83
2022/05/02 14:04:18;;;;;;;11.40;6.57;;;;;;;;;;5051384;28;20025;-83
2022/05/02 14:09:47;;;;;;;10.57;7.20;;;;;;;;;;5051934;28;20043;-82
2022/05/02 14:12:18;;;;;;;15.20;6.72;;;;;;;;;;5052120;28;20556;-83
2022/05/02 14:14:59;;;;;;;8.50;5.45;;;;;;;;;;5052186;28;20368;-83
2022/05/02 14:17:27;;;;;;;11.70;7.00;;;;;;;;;;5052021;28;20025;-83
2022/05/02 14:20:07;;;;;;;8.32;5.13;;;;;;;;;;5050156;28;20021;-82
2022/05/02 14:22:38;;;;;;;10.73;5.43;;;;;;;;;;5050809;28;20464;-82
2022/05/02 14:25:08;;;;;;;12.57;5.57;;;;;;;;;;5050742;28;20017;-83
2022/05/02 14:27:33;;;;;;;11.85;6.22;;;;;;;;;;5050460;28;20532;-83
2022/05/02 14:30:03;;;;;;;13.02;7.35;;;;;;;;;;5050066;28;20132;-83
2022/05/02 14:32:41;;;;;;;11.95;6.15;;;;;;;;;;5052061;28;20055;-83
2022/05/02 14:35:08;;;;;;;12.40;5.88;;;;;;;;;;5050632;28;20394;-82
2022/05/02 14:37:34;;;;;;;15.13;7.47;;;;;;;;;;5051590;28;20017;-83
2022/05/02 14:39:59;;;;;;;11.48;6.95;;;;;;;;;;5051239;28;20528;-82
2022/05/02 14:42:25;;;;;;;16.67;6.63;;;;;;;;;;5066863;28;20100;-82
2022/05/02 14:44:52;;;;;;;11.73;6.13;;;;;;;;;;5051658;28;20350;-82
2022/05/02 14:47:17;;;;;;;12.02;6.15;;;;;;;;;;5051527;28;20017;-83
2022/05/02 14:49:42;;;;;;;14.38;6.40;;;;;;;;;;5049949;28;20017;-82
2022/05/02 14:52:17;;;;;;;16.45;8.65;;;;;;;;;;5050569;28;20028;-83
2022/05/02 14:54:44;;;;;;;12.90;6.60;;;;;;;;;;5051748;28;20017;-83
2022/05/02 14:57:12;;;;;;;13.63;6.93;;;;;;;;;;5050206;28;20021;-83
2022/05/02 14:59:37;;;;;;;15.85;6.82;;;;;;;;;;5051252;28;20031;-83
2022/05/02 15:02:04;;;;;;;13.35;6.00;;;;;;;;;;5050252;28;20025;-83
2022/05/02 15:04:33;;;;;;;19.67;8.93;;;;;;;;;;5051608;28;20017;-83
2022/05/02 15:07:00;;;;;;;11.55;6.47;;;;;;;;;;5050154;28;20051;-83
2022/05/02 15:12:45;;;;;;;12.60;7.82;;;;;;;;;;5051541;28;20431;-83
2022/05/02 15:15:25;;;;;;;17.52;8.25;;;;;;;;;;5050286;28;20372;-83
2022/05/02 15:18:20;;;;;;;13.40;6.65;;;;;;;;;;5052977;28;20063;-82